PWSweather.com
Personal Weather Stations
Station Observations
IHTIMAN1
Neighbourhood 1, IhtimanBG 2050

Neighbourhood 1IhtimanBG 2050

Lat: 42.436852, Lon: 23.817921

Elevation: 2066

Station Type: Oregon Scientific WMR968

http://ihtiman-meteo.com

High Low Average
Temperature 85.4°F29.7°C 54.0°F12.2°C 65.4°F18.6°C
Dew Point 62.9°F17.2°C 53.4°F11.9°C 59.0°F15.0°C
Winds 12.7 mph 20.4 kmh Calm Calm 1.0 mph SW1.6 kmh SW
Wind Gusts 15.0 mph24.1 kmh -- 2.0 mph3.2 kmh
Humidity 98% 41% 84%
Pressure 30.00 in1015.9 mb 29.94 in1013.9 mb -
Precipitation 0.09 in2.3 mm - -
Hour Temp Dew Point Humidity Winds Wind Gusts Pressure Precip Precip Rate Daily Precip Total
12:00 AM 59.5°F15.3°C 59.0°F15.0°C 98% Calm Calm -- 29.97 in1014.9 mb - 0.00 in0.0 mm 0.00 in0.0 mm
12:10 AM 59.2°F15.1°C 58.6°F14.8°C 98% Calm Calm -- 29.97 in1014.9 mb - 0.00 in0.0 mm 0.00 in0.0 mm
12:20 AM 58.8°F14.9°C 58.3°F14.6°C 98% Calm Calm -- 29.97 in1014.9 mb - 0.00 in0.0 mm 0.00 in0.0 mm
12:30 AM 58.8°F14.9°C 58.3°F14.6°C 98% Calm Calm -- 29.97 in1014.9 mb - 0.00 in0.0 mm 0.00 in0.0 mm
12:40 AM 58.8°F14.9°C 58.3°F14.6°C 98% Calm Calm -- 29.97 in1014.9 mb - 0.00 in0.0 mm 0.00 in0.0 mm
12:50 AM 58.8°F14.9°C 58.3°F14.6°C 98% Calm Calm -- 29.97 in1014.9 mb - 0.00 in0.0 mm 0.00 in0.0 mm
01:00 AM 58.5°F14.7°C 57.9°F14.4°C 98% Calm Calm -- 29.94 in1013.9 mb - 0.00 in0.0 mm 0.00 in0.0 mm
01:10 AM 57.9°F14.4°C 57.4°F14.1°C 98% Calm Calm -- 29.94 in1013.9 mb - 0.00 in0.0 mm 0.00 in0.0 mm
01:20 AM 57.6°F14.2°C 57.0°F13.9°C 98% Calm Calm -- 29.97 in1014.9 mb - 0.00 in0.0 mm 0.00 in0.0 mm
01:30 AM 57.4°F14.1°C 56.8°F13.8°C 98% Calm Calm -- 29.97 in1014.9 mb - 0.00 in0.0 mm 0.00 in0.0 mm
01:40 AM 57.2°F14.0°C 56.6°F13.7°C 98% Calm Calm -- 29.97 in1014.9 mb - 0.00 in0.0 mm 0.00 in0.0 mm
01:50 AM 57.2°F14.0°C 56.6°F13.7°C 98% Calm Calm -- 29.97 in1014.9 mb - 0.00 in0.0 mm 0.00 in0.0 mm
02:00 AM 57.4°F14.1°C 56.8°F13.8°C 98% Calm Calm -- 29.97 in1014.9 mb - 0.00 in0.0 mm 0.00 in0.0 mm
02:10 AM 57.2°F14.0°C 56.6°F13.7°C 98% Calm Calm -- 29.97 in1014.9 mb - 0.00 in0.0 mm 0.00 in0.0 mm
02:20 AM 56.8°F13.8°C 56.3°F13.5°C 98% Calm Calm -- 29.94 in1013.9 mb - 0.00 in0.0 mm 0.00 in0.0 mm
02:30 AM 56.8°F13.8°C 56.3°F13.5°C 98% Calm Calm -- 29.94 in1013.9 mb - 0.00 in0.0 mm 0.00 in0.0 mm
02:40 AM 56.7°F13.7°C 56.1°F13.4°C 98% Calm Calm -- 29.94 in1013.9 mb - 0.00 in0.0 mm 0.00 in0.0 mm
02:50 AM 56.7°F13.7°C 56.1°F13.4°C 98% 2.3 mph SW3.7 kmh SW 3.5 mph5.6 kmh 29.94 in1013.9 mb - 0.00 in0.0 mm 0.00 in0.0 mm
03:00 AM 56.1°F13.4°C 55.5°F13.1°C 98% Calm Calm -- 29.94 in1013.9 mb - 0.00 in0.0 mm 0.00 in0.0 mm
03:10 AM 55.8°F13.2°C 55.2°F12.9°C 98% Calm Calm -- 29.94 in1013.9 mb - 0.00 in0.0 mm 0.00 in0.0 mm
03:20 AM 55.6°F13.1°C 55.0°F12.8°C 98% Calm Calm -- 29.94 in1013.9 mb - 0.00 in0.0 mm 0.00 in0.0 mm
03:30 AM 55.8°F13.2°C 55.2°F12.9°C 98% Calm Calm -- 29.94 in1013.9 mb - 0.00 in0.0 mm 0.00 in0.0 mm
03:40 AM 55.6°F13.1°C 55.0°F12.8°C 98% Calm Calm -- 29.94 in1013.9 mb - 0.00 in0.0 mm 0.00 in0.0 mm
03:50 AM 55.8°F13.2°C 55.2°F12.9°C 98% Calm Calm -- 29.94 in1013.9 mb - 0.00 in0.0 mm 0.00 in0.0 mm
04:00 AM 55.8°F13.2°C 55.2°F12.9°C 98% Calm Calm -- 29.94 in1013.9 mb - 0.00 in0.0 mm 0.00 in0.0 mm
04:10 AM 55.8°F13.2°C 55.2°F12.9°C 98% Calm Calm -- 29.94 in1013.9 mb - 0.00 in0.0 mm 0.00 in0.0 mm
04:20 AM 55.8°F13.2°C 55.2°F12.9°C 98% Calm Calm -- 29.94 in1013.9 mb - 0.00 in0.0 mm 0.00 in0.0 mm
04:30 AM 55.6°F13.1°C 55.0°F12.8°C 98% Calm Calm -- 29.94 in1013.9 mb - 0.00 in0.0 mm 0.00 in0.0 mm
04:40 AM 55.4°F13.0°C 54.8°F12.7°C 98% Calm Calm -- 29.94 in1013.9 mb - 0.00 in0.0 mm 0.00 in0.0 mm
04:50 AM 55.0°F12.8°C 54.4°F12.4°C 98% Calm Calm -- 29.94 in1013.9 mb - 0.00 in0.0 mm 0.00 in0.0 mm
05:00 AM 54.7°F12.6°C 54.1°F12.3°C 98% Calm Calm -- 29.94 in1013.9 mb - 0.00 in0.0 mm 0.00 in0.0 mm
05:10 AM 54.2°F12.3°C 53.6°F12.0°C 98% Calm Calm -- 29.94 in1013.9 mb - 0.00 in0.0 mm 0.00 in0.0 mm
05:20 AM 54.0°F12.2°C 53.4°F11.9°C 98% Calm Calm -- 29.94 in1013.9 mb - 0.00 in0.0 mm 0.00 in0.0 mm
05:30 AM 54.1°F12.3°C 53.6°F12.0°C 98% 1.2 mph S1.9 kmh S 3.5 mph5.6 kmh 29.94 in1013.9 mb - 0.00 in0.0 mm 0.00 in0.0 mm
05:40 AM 54.3°F12.4°C 53.8°F12.1°C 98% Calm Calm -- 29.94 in1013.9 mb - 0.00 in0.0 mm 0.00 in0.0 mm
05:50 AM 54.6°F12.6°C 54.1°F12.3°C 98% Calm Calm -- 29.97 in1014.9 mb - 0.00 in0.0 mm 0.00 in0.0 mm
06:00 AM 54.9°F12.7°C 54.3°F12.4°C 98% Calm Calm -- 29.97 in1014.9 mb - 0.00 in0.0 mm 0.00 in0.0 mm
06:10 AM 55.4°F13.0°C 54.8°F12.7°C 98% Calm Calm -- 29.97 in1014.9 mb - 0.00 in0.0 mm 0.00 in0.0 mm
06:20 AM 56.2°F13.4°C 55.7°F13.2°C 98% Calm Calm -- 29.97 in1014.9 mb - 0.00 in0.0 mm 0.00 in0.0 mm
06:30 AM 56.8°F13.8°C 56.3°F13.5°C 98% Calm Calm -- 29.94 in1013.9 mb - 0.00 in0.0 mm 0.00 in0.0 mm
06:40 AM 57.6°F14.2°C 57.1°F13.9°C 98% Calm Calm -- 29.94 in1013.9 mb - 0.00 in0.0 mm 0.00 in0.0 mm
07:00 AM 59.0°F15.0°C 58.4°F14.7°C 98% Calm Calm -- 29.97 in1014.9 mb - 0.00 in0.0 mm 0.00 in0.0 mm
07:10 AM 59.9°F15.5°C 59.3°F15.2°C 98% Calm Calm 2.3 mph3.7 kmh 29.97 in1014.9 mb - 0.00 in0.0 mm 0.00 in0.0 mm
07:20 AM 61.8°F16.6°C 61.2°F16.2°C 98% Calm Calm 2.3 mph3.7 kmh 29.94 in1013.9 mb - 0.00 in0.0 mm 0.00 in0.0 mm
07:30 AM 62.9°F17.2°C 61.7°F16.5°C 96% 2.3 mph WSW3.7 kmh WSW 4.6 mph7.4 kmh 29.94 in1013.9 mb - 0.00 in0.0 mm 0.00 in0.0 mm
07:50 AM 65.5°F18.6°C 62.2°F16.8°C 89% 1.2 mph SW1.9 kmh SW 3.5 mph5.6 kmh 29.94 in1013.9 mb - 0.00 in0.0 mm 0.00 in0.0 mm
08:00 AM 66.1°F18.9°C 60.8°F16.0°C 83% Calm Calm 3.5 mph5.6 kmh 29.94 in1013.9 mb - 0.00 in0.0 mm 0.00 in0.0 mm
08:10 AM 66.5°F19.2°C 60.5°F15.8°C 81% 2.3 mph WSW3.7 kmh WSW 3.5 mph5.6 kmh 29.94 in1013.9 mb - 0.00 in0.0 mm 0.00 in0.0 mm
08:20 AM 67.1°F19.5°C 60.7°F15.9°C 80% 3.5 mph W5.6 kmh W 3.5 mph5.6 kmh 29.94 in1013.9 mb - 0.00 in0.0 mm 0.00 in0.0 mm
08:30 AM 68.3°F20.2°C 61.6°F16.4°C 79% 2.3 mph W3.7 kmh W 4.6 mph7.4 kmh 29.94 in1013.9 mb - 0.00 in0.0 mm 0.00 in0.0 mm
08:40 AM 69.2°F20.7°C 61.3°F16.3°C 76% 1.2 mph WSW1.9 kmh WSW 2.3 mph3.7 kmh 29.94 in1013.9 mb - 0.00 in0.0 mm 0.00 in0.0 mm
08:50 AM 70.3°F21.3°C 61.2°F16.2°C 73% 1.2 mph WSW1.9 kmh WSW 3.5 mph5.6 kmh 29.94 in1013.9 mb - 0.00 in0.0 mm 0.00 in0.0 mm
09:00 AM 70.6°F21.4°C 61.1°F16.2°C 72% Calm Calm -- 29.94 in1013.9 mb - 0.00 in0.0 mm 0.00 in0.0 mm
09:10 AM 72.1°F22.3°C 61.8°F16.6°C 70% 3.5 mph SW5.6 kmh SW 3.5 mph5.6 kmh 29.94 in1013.9 mb - 0.00 in0.0 mm 0.00 in0.0 mm
09:20 AM 72.8°F22.7°C 61.2°F16.2°C 67% 3.5 mph W5.6 kmh W 5.8 mph9.3 kmh 29.94 in1013.9 mb - 0.00 in0.0 mm 0.00 in0.0 mm
09:30 AM 74.0°F23.3°C 61.5°F16.4°C 65% 2.3 mph N3.7 kmh N 5.8 mph9.3 kmh 29.94 in1013.9 mb - 0.00 in0.0 mm 0.00 in0.0 mm
09:40 AM 75.0°F23.9°C 60.2°F15.7°C 60% Calm Calm 3.5 mph5.6 kmh 29.94 in1013.9 mb - 0.00 in0.0 mm 0.00 in0.0 mm
09:50 AM 76.3°F24.6°C 60.4°F15.8°C 58% Calm Calm 3.5 mph5.6 kmh 29.97 in1014.9 mb - 0.00 in0.0 mm 0.00 in0.0 mm
10:00 AM 76.9°F24.9°C 61.0°F16.1°C 58% 2.3 mph WSW3.7 kmh WSW 3.5 mph5.6 kmh 29.97 in1014.9 mb - 0.00 in0.0 mm 0.00 in0.0 mm
10:10 AM 77.4°F25.2°C 60.5°F15.8°C 56% 2.3 mph W3.7 kmh W 4.6 mph7.4 kmh 29.97 in1014.9 mb - 0.00 in0.0 mm 0.00 in0.0 mm
10:20 AM 77.4°F25.2°C 61.4°F16.3°C 58% 3.5 mph NW5.6 kmh NW 4.6 mph7.4 kmh 29.97 in1014.9 mb - 0.00 in0.0 mm 0.00 in0.0 mm
10:30 AM 78.5°F25.8°C 61.5°F16.4°C 56% Calm Calm 3.5 mph5.6 kmh 29.97 in1014.9 mb - 0.00 in0.0 mm 0.00 in0.0 mm
10:40 AM 79.7°F26.5°C 60.6°F15.9°C 52% 2.3 mph SSE3.7 kmh SSE 3.5 mph5.6 kmh 29.97 in1014.9 mb - 0.00 in0.0 mm 0.00 in0.0 mm
10:50 AM 78.1°F25.6°C 59.0°F15.0°C 52% 2.3 mph W3.7 kmh W 3.5 mph5.6 kmh 29.97 in1014.9 mb - 0.00 in0.0 mm 0.00 in0.0 mm
11:00 AM 79.7°F26.5°C 60.5°F15.8°C 52% 3.5 mph S5.6 kmh S 4.6 mph7.4 kmh 29.97 in1014.9 mb - 0.00 in0.0 mm 0.00 in0.0 mm
11:10 AM 80.6°F27.0°C 60.2°F15.7°C 50% 4.6 mph SE7.4 kmh SE 8.1 mph13.0 kmh 29.97 in1014.9 mb - 0.00 in0.0 mm 0.00 in0.0 mm
11:20 AM 80.8°F27.1°C 59.8°F15.4°C 49% 4.6 mph SSE7.4 kmh SSE 5.8 mph9.3 kmh 29.94 in1013.9 mb - 0.00 in0.0 mm 0.00 in0.0 mm
11:30 AM 81.1°F27.3°C 58.4°F14.7°C 46% 4.6 mph SE7.4 kmh SE 5.8 mph9.3 kmh 29.97 in1014.9 mb - 0.00 in0.0 mm 0.00 in0.0 mm
11:40 AM 81.4°F27.4°C 59.2°F15.1°C 47% 5.8 mph SSE9.3 kmh SSE 5.8 mph9.3 kmh 29.97 in1014.9 mb - 0.00 in0.0 mm 0.00 in0.0 mm
11:50 AM 81.6°F27.6°C 58.8°F14.9°C 46% 3.5 mph SE5.6 kmh SE 5.8 mph9.3 kmh 29.97 in1014.9 mb - 0.00 in0.0 mm 0.00 in0.0 mm
12:00 PM 81.6°F27.6°C 59.4°F15.2°C 47% 3.5 mph SE5.6 kmh SE 4.6 mph7.4 kmh 29.97 in1014.9 mb - 0.00 in0.0 mm 0.00 in0.0 mm
12:10 PM 82.2°F27.9°C 58.8°F14.9°C 45% 4.6 mph SE7.4 kmh SE 8.1 mph13.0 kmh 29.97 in1014.9 mb - 0.00 in0.0 mm 0.00 in0.0 mm
12:20 PM 83.4°F28.6°C 59.2°F15.1°C 44% 1.2 mph E1.9 kmh E 3.5 mph5.6 kmh 29.97 in1014.9 mb - 0.00 in0.0 mm 0.00 in0.0 mm
12:30 PM 81.2°F27.3°C 57.2°F14.0°C 44% 5.8 mph SE9.3 kmh SE 8.1 mph13.0 kmh 29.97 in1014.9 mb - 0.00 in0.0 mm 0.00 in0.0 mm
12:40 PM 82.7°F28.2°C 58.0°F14.4°C 43% 3.5 mph SE5.6 kmh SE 8.1 mph13.0 kmh 29.97 in1014.9 mb - 0.00 in0.0 mm 0.00 in0.0 mm
12:50 PM 82.6°F28.1°C 57.2°F14.0°C 42% 4.6 mph SE7.4 kmh SE 5.8 mph9.3 kmh 29.97 in1014.9 mb - 0.00 in0.0 mm 0.00 in0.0 mm
01:00 PM 83.6°F28.7°C 58.7°F14.8°C 43% 4.6 mph SE7.4 kmh SE 5.8 mph9.3 kmh 29.97 in1014.9 mb - 0.00 in0.0 mm 0.00 in0.0 mm
01:10 PM 83.2°F28.4°C 57.7°F14.3°C 42% 5.8 mph S9.3 kmh S 8.1 mph13.0 kmh 29.97 in1014.9 mb - 0.00 in0.0 mm 0.00 in0.0 mm
01:20 PM 82.0°F27.8°C 58.0°F14.4°C 44% 3.5 mph ESE5.6 kmh ESE 8.1 mph13.0 kmh 29.94 in1013.9 mb - 0.00 in0.0 mm 0.00 in0.0 mm
01:30 PM 82.8°F28.2°C 57.4°F14.1°C 42% 3.5 mph SSE5.6 kmh SSE 5.8 mph9.3 kmh 29.94 in1013.9 mb - 0.00 in0.0 mm 0.00 in0.0 mm
01:40 PM 85.4°F29.7°C 59.0°F15.0°C 41% 4.6 mph NE7.4 kmh NE 5.8 mph9.3 kmh 29.94 in1013.9 mb - 0.00 in0.0 mm 0.00 in0.0 mm
01:50 PM 84.4°F29.1°C 58.1°F14.5°C 41% 5.8 mph NNE9.3 kmh NNE 8.1 mph13.0 kmh 29.94 in1013.9 mb - 0.00 in0.0 mm 0.00 in0.0 mm
02:00 PM 80.3°F26.8°C 56.4°F13.6°C 44% 5.8 mph N9.3 kmh N 11.5 mph18.5 kmh 29.94 in1013.9 mb - 0.00 in0.0 mm 0.00 in0.0 mm
02:10 PM 77.2°F25.1°C 55.4°F13.0°C 47% 4.6 mph NNE7.4 kmh NNE 11.5 mph18.5 kmh 29.94 in1013.9 mb - 0.00 in0.0 mm 0.00 in0.0 mm
02:20 PM 77.4°F25.2°C 57.8°F14.3°C 51% 3.5 mph NNE5.6 kmh NNE 3.5 mph5.6 kmh 29.94 in1013.9 mb - 0.00 in0.0 mm 0.00 in0.0 mm
02:30 PM 77.3°F25.2°C 59.3°F15.2°C 54% 5.8 mph N9.3 kmh N 8.1 mph13.0 kmh 29.94 in1013.9 mb - 0.00 in0.0 mm 0.00 in0.0 mm
02:40 PM 76.6°F24.8°C 58.7°F14.8°C 54% 3.5 mph NNE5.6 kmh NNE 8.1 mph13.0 kmh 29.94 in1013.9 mb - 0.00 in0.0 mm 0.00 in0.0 mm
02:50 PM 76.2°F24.6°C 58.3°F14.6°C 54% Calm Calm 2.3 mph3.7 kmh 29.94 in1013.9 mb - 0.00 in0.0 mm 0.00 in0.0 mm
03:00 PM 75.7°F24.3°C 59.9°F15.5°C 58% 6.9 mph NNW11.1 kmh NNW 11.5 mph18.5 kmh 29.94 in1013.9 mb - 0.00 in0.0 mm 0.00 in0.0 mm
03:10 PM 74.1°F23.4°C 60.3°F15.7°C 62% 2.3 mph NNW3.7 kmh NNW 5.8 mph9.3 kmh 29.94 in1013.9 mb - 0.00 in0.0 mm 0.00 in0.0 mm
03:20 PM 73.2°F22.9°C 60.7°F15.9°C 65% 8.1 mph NNW13.0 kmh NNW 15.0 mph24.1 kmh 29.94 in1013.9 mb - 0.00 in0.0 mm 0.00 in0.0 mm
03:30 PM 71.0°F21.7°C 61.9°F16.6°C 73% 9.2 mph NW14.8 kmh NW 12.7 mph20.4 kmh 29.97 in1014.9 mb - 0.00 in0.0 mm 0.00 in0.0 mm
03:40 PM 68.0°F20.0°C 60.9°F16.1°C 78% 12.7 mph NW20.4 kmh NW 12.7 mph20.4 kmh 29.97 in1014.9 mb - 0.00 in0.0 mm 0.00 in0.0 mm
03:50 PM 66.0°F18.9°C 60.3°F15.7°C 82% 8.1 mph NW13.0 kmh NW 9.2 mph14.8 kmh 30.00 in1015.9 mb - 0.00 in0.0 mm 0.00 in0.0 mm
04:00 PM 65.1°F18.4°C 60.8°F16.0°C 86% 3.5 mph NNW5.6 kmh NNW 5.8 mph9.3 kmh 30.00 in1015.9 mb - 0.00 in0.0 mm 0.00 in0.0 mm
04:10 PM 64.8°F18.2°C 61.4°F16.3°C 89% 4.6 mph NNE7.4 kmh NNE 5.8 mph9.3 kmh 30.00 in1015.9 mb - 0.00 in0.0 mm 0.00 in0.0 mm
04:20 PM 64.8°F18.2°C 61.8°F16.6°C 90% 3.5 mph N5.6 kmh N 4.6 mph7.4 kmh 29.97 in1014.9 mb - 0.00 in0.0 mm 0.00 in0.0 mm
04:30 PM 64.4°F18.0°C 61.7°F16.5°C 91% 2.3 mph N3.7 kmh N 4.6 mph7.4 kmh 29.97 in1014.9 mb - 0.00 in0.0 mm 0.00 in0.0 mm
04:40 PM 64.2°F17.9°C 61.8°F16.6°C 92% 3.5 mph N5.6 kmh N 3.5 mph5.6 kmh 29.97 in1014.9 mb - 0.00 in0.0 mm 0.00 in0.0 mm
04:50 PM 63.9°F17.7°C 61.8°F16.6°C 93% 1.2 mph N1.9 kmh N 3.5 mph5.6 kmh 29.97 in1014.9 mb - 0.00 in0.0 mm 0.00 in0.0 mm
05:00 PM 63.7°F17.6°C 61.9°F16.6°C 94% Calm Calm -- 29.94 in1013.9 mb - 0.05 in1.3 mm 0.05 in1.3 mm
05:10 PM 63.5°F17.5°C 62.0°F16.7°C 95% Calm Calm -- 29.94 in1013.9 mb - 0.09 in2.3 mm 0.09 in2.3 mm
05:20 PM 63.3°F17.4°C 62.2°F16.8°C 96% Calm Calm -- 29.97 in1014.9 mb - 0.09 in2.3 mm 0.09 in2.3 mm
05:30 PM 63.1°F17.3°C 62.0°F16.7°C 96% Calm Calm -- 29.97 in1014.9 mb - 0.09 in2.3 mm 0.09 in2.3 mm
05:40 PM 63.3°F17.4°C 62.5°F16.9°C 97% Calm Calm -- 29.97 in1014.9 mb - 0.09 in2.3 mm 0.09 in2.3 mm
05:50 PM 63.5°F17.5°C 62.9°F17.2°C 98% Calm Calm -- 29.97 in1014.9 mb - 0.09 in2.3 mm 0.09 in2.3 mm
06:00 PM 63.1°F17.3°C 62.6°F17.0°C 98% Calm Calm -- 29.97 in1014.9 mb - 0.05 in1.3 mm 0.09 in2.3 mm
06:10 PM 63.2°F17.3°C 62.6°F17.0°C 98% Calm Calm -- 29.97 in1014.9 mb - 0.00 in0.0 mm 0.09 in2.3 mm
06:20 PM 63.3°F17.4°C 62.7°F17.1°C 98% Calm Calm -- 29.97 in1014.9 mb - 0.00 in0.0 mm 0.09 in2.3 mm
06:30 PM 63.5°F17.5°C 62.9°F17.2°C 98% Calm Calm -- 29.97 in1014.9 mb - 0.00 in0.0 mm 0.09 in2.3 mm
06:40 PM 63.5°F17.5°C 62.9°F17.2°C 98% Calm Calm -- 29.97 in1014.9 mb - 0.00 in0.0 mm 0.09 in2.3 mm
06:50 PM 63.5°F17.5°C 62.9°F17.2°C 98% Calm Calm -- 29.97 in1014.9 mb - 0.00 in0.0 mm 0.09 in2.3 mm
07:00 PM 63.3°F17.4°C 62.7°F17.1°C 98% Calm Calm -- 29.97 in1014.9 mb - 0.00 in0.0 mm 0.09 in2.3 mm
07:10 PM 63.5°F17.5°C 62.9°F17.2°C 98% Calm Calm -- 29.97 in1014.9 mb - 0.00 in0.0 mm 0.09 in2.3 mm
07:20 PM 63.5°F17.5°C 62.9°F17.2°C 98% Calm Calm -- 29.97 in1014.9 mb - 0.00 in0.0 mm 0.09 in2.3 mm
07:30 PM 63.3°F17.4°C 62.7°F17.1°C 98% Calm Calm -- 29.97 in1014.9 mb - 0.00 in0.0 mm 0.09 in2.3 mm
07:40 PM 63.1°F17.3°C 62.6°F17.0°C 98% Calm Calm -- 29.97 in1014.9 mb - 0.00 in0.0 mm 0.09 in2.3 mm
07:50 PM 63.0°F17.2°C 62.4°F16.9°C 98% Calm Calm -- 29.94 in1013.9 mb - 0.00 in0.0 mm 0.09 in2.3 mm
08:00 PM 63.0°F17.2°C 62.4°F16.9°C 98% Calm Calm -- 29.97 in1014.9 mb - 0.00 in0.0 mm 0.09 in2.3 mm
08:10 PM 62.6°F17.0°C 62.0°F16.7°C 98% Calm Calm -- 29.97 in1014.9 mb - 0.00 in0.0 mm 0.09 in2.3 mm
08:20 PM 62.2°F16.8°C 61.7°F16.5°C 98% Calm Calm -- 29.94 in1013.9 mb - 0.00 in0.0 mm 0.09 in2.3 mm
08:30 PM 62.2°F16.8°C 61.7°F16.5°C 98% Calm Calm -- 29.97 in1014.9 mb - 0.00 in0.0 mm 0.09 in2.3 mm
08:40 PM 62.0°F16.7°C 61.5°F16.4°C 98% Calm Calm -- 29.97 in1014.9 mb - 0.00 in0.0 mm 0.09 in2.3 mm
08:50 PM 61.7°F16.5°C 61.1°F16.2°C 98% Calm Calm -- 29.97 in1014.9 mb - 0.00 in0.0 mm 0.09 in2.3 mm
09:00 PM 61.3°F16.3°C 60.8°F16.0°C 98% Calm Calm -- 29.97 in1014.9 mb - 0.00 in0.0 mm 0.09 in2.3 mm
09:10 PM 61.0°F16.1°C 60.5°F15.8°C 98% Calm Calm -- 29.97 in1014.9 mb - 0.00 in0.0 mm 0.09 in2.3 mm
09:20 PM 60.8°F16.0°C 60.2°F15.7°C 98% Calm Calm -- 29.97 in1014.9 mb - 0.00 in0.0 mm 0.09 in2.3 mm
09:30 PM 60.4°F15.8°C 59.9°F15.5°C 98% Calm Calm -- 29.97 in1014.9 mb - 0.00 in0.0 mm 0.09 in2.3 mm
09:40 PM 60.3°F15.7°C 59.7°F15.4°C 98% Calm Calm -- 29.97 in1014.9 mb - 0.00 in0.0 mm 0.09 in2.3 mm
09:50 PM 60.0°F15.6°C 59.5°F15.3°C 98% Calm Calm -- 29.97 in1014.9 mb - 0.00 in0.0 mm 0.09 in2.3 mm
10:00 PM 59.7°F15.4°C 59.2°F15.1°C 98% Calm Calm -- 30.00 in1015.9 mb - 0.00 in0.0 mm 0.09 in2.3 mm
10:10 PM 59.5°F15.3°C 59.0°F15.0°C 98% Calm Calm -- 30.00 in1015.9 mb - 0.00 in0.0 mm 0.09 in2.3 mm
10:20 PM 59.2°F15.1°C 58.6°F14.8°C 98% Calm Calm -- 30.00 in1015.9 mb - 0.00 in0.0 mm 0.09 in2.3 mm
10:30 PM 59.0°F15.0°C 58.4°F14.7°C 98% Calm Calm -- 30.00 in1015.9 mb - 0.00 in0.0 mm 0.09 in2.3 mm
10:40 PM 58.6°F14.8°C 58.1°F14.5°C 98% Calm Calm -- 30.00 in1015.9 mb - 0.00 in0.0 mm 0.09 in2.3 mm
10:50 PM 58.5°F14.7°C 57.9°F14.4°C 98% Calm Calm -- 30.00 in1015.9 mb - 0.00 in0.0 mm 0.09 in2.3 mm
11:00 PM 58.3°F14.6°C 57.7°F14.3°C 98% Calm Calm -- 30.00 in1015.9 mb - 0.00 in0.0 mm 0.55 in14.0 mm
11:10 PM 58.1°F14.5°C 57.5°F14.2°C 98% Calm Calm -- 30.00 in1015.9 mb - 0.00 in0.0 mm 0.55 in14.0 mm
11:20 PM 57.9°F14.4°C 57.4°F14.1°C 98% Calm Calm -- 30.00 in1015.9 mb - 0.00 in0.0 mm 0.55 in14.0 mm
11:30 PM 57.9°F14.4°C 57.4°F14.1°C 98% Calm Calm -- 30.00 in1015.9 mb - 0.00 in0.0 mm 0.55 in14.0 mm
11:40 PM 57.9°F14.4°C 57.4°F14.1°C 98% Calm Calm -- 30.00 in1015.9 mb - 0.00 in0.0 mm 0.55 in14.0 mm
11:50 PM 57.9°F14.4°C 57.4°F14.1°C 98% Calm Calm -- 30.00 in1015.9 mb - 0.00 in0.0 mm 0.55 in14.0 mm